createdAt,value
2023-07-11T00:00:16.565Z,100689.59
2023-07-11T00:02:44.446Z,100684.41
2023-07-11T00:05:13.948Z,100699.75
2023-07-11T00:07:41.115Z,100687.09
2023-07-11T00:10:10.617Z,100687.16
2023-07-11T00:12:37.210Z,100692.75
2023-07-11T00:15:04.666Z,100682.28
2023-07-11T00:17:31.215Z,100689.47
2023-07-11T00:19:59.444Z,100685.81
2023-07-11T00:22:29.689Z,100677.88
2023-07-11T00:24:56.562Z,100690.44
2023-07-11T00:27:24.464Z,100678.88
2023-07-11T00:29:52.145Z,100689.63
2023-07-11T00:32:18.657Z,100692.38
2023-07-11T00:34:45.370Z,100688.38
2023-07-11T00:37:11.909Z,100680.47
2023-07-11T00:39:38.529Z,100676.09
2023-07-11T00:42:07.020Z,100685.06
2023-07-11T00:44:57.960Z,100682.25
2023-07-11T00:47:27.342Z,100676.97
2023-07-11T00:50:02.861Z,100669.25
2023-07-11T00:52:29.987Z,100679.22
2023-07-11T00:54:59.751Z,100671.28
2023-07-11T00:57:30.149Z,100679.34
2023-07-11T00:59:56.597Z,100664.16
2023-07-11T01:02:29.266Z,100672.31
2023-07-11T01:04:56.371Z,100657.97
2023-07-11T01:07:26.893Z,100656.13
2023-07-11T01:09:53.600Z,100663.19
2023-07-11T01:12:20.738Z,100666.66
2023-07-11T01:14:50.028Z,100657.97
2023-07-11T01:17:25.406Z,100669.72
2023-07-11T01:19:52.746Z,100668.94
2023-07-11T01:22:19.299Z,100667.16
2023-07-11T01:24:45.771Z,100662.69
2023-07-11T01:27:12.190Z,100664.50
2023-07-11T01:29:38.651Z,100665.28
2023-07-11T01:32:05.596Z,100660.03
2023-07-11T01:34:33.336Z,100659.09
2023-07-11T01:36:59.730Z,100657.44
2023-07-11T01:39:26.345Z,100658.31
2023-07-11T01:41:52.690Z,100654.78
2023-07-11T01:44:22.127Z,100650.44
2023-07-11T01:46:48.565Z,100646.97
2023-07-11T01:49:15.039Z,100646.16
2023-07-11T01:51:45.861Z,100642.69
2023-07-11T01:54:13.165Z,100640.03
2023-07-11T01:56:39.737Z,100632.78
2023-07-11T01:59:07.519Z,100639.13
2023-07-11T02:01:34.781Z,100635.44
2023-07-11T02:04:01.417Z,100639.94
2023-07-11T02:06:29.489Z,100633.75
2023-07-11T02:08:55.882Z,100628.47
2023-07-11T02:11:22.307Z,100628.44
2023-07-11T02:13:48.679Z,100625.81
2023-07-11T02:16:15.165Z,100620.44
2023-07-11T02:18:41.605Z,100618.66
2023-07-11T02:21:07.936Z,100626.75
2023-07-11T02:23:34.359Z,100617.94
2023-07-11T02:26:00.803Z,100632.22
2023-07-11T02:28:27.158Z,100620.72
2023-07-11T02:30:53.510Z,100626.13
2023-07-11T02:33:19.898Z,100628.81
2023-07-11T02:35:46.259Z,100624.41
2023-07-11T02:38:12.596Z,100619.97
2023-07-11T02:40:39.091Z,100627.13
2023-07-11T02:43:05.556Z,100616.41
2023-07-11T02:45:31.972Z,100626.06
2023-07-11T02:47:58.382Z,100629.63
2023-07-11T02:50:24.837Z,100627.84
2023-07-11T02:52:51.186Z,100620.78
2023-07-11T02:55:17.608Z,100628.84
2023-07-11T02:57:44.498Z,100623.53
2023-07-11T03:00:11.616Z,100613.72
2023-07-11T03:02:38.367Z,100610.91
2023-07-11T03:05:08.873Z,100601.84
2023-07-11T03:07:36.048Z,100595.56
2023-07-11T03:10:02.646Z,100599.28
2023-07-11T03:12:29.009Z,100605.56
2023-07-11T03:14:55.605Z,100607.38
2023-07-11T03:17:22.199Z,100609.19
2023-07-11T03:19:48.582Z,100603.81
2023-07-11T03:22:15.019Z,100601.19
2023-07-11T03:24:41.425Z,100603.03
2023-07-11T03:27:07.806Z,100596.84
2023-07-11T03:29:34.187Z,100586.28
2023-07-11T03:32:00.563Z,100588.09
2023-07-11T03:34:26.946Z,100589.88
2023-07-11T03:36:53.355Z,100596.94
2023-07-11T03:39:19.687Z,100581.81
2023-07-11T03:41:46.042Z,100579.16
2023-07-11T03:44:12.392Z,100588.97
2023-07-11T03:46:38.791Z,100588.97
2023-07-11T03:49:05.254Z,100581.84
2023-07-11T03:51:31.665Z,100580.94
2023-07-11T03:53:58.064Z,100574.69
2023-07-11T03:56:24.823Z,100576.41
2023-07-11T03:58:51.348Z,100579.94
2023-07-11T04:01:18.356Z,100578.13
2023-07-11T04:03:44.891Z,100572.75
2023-07-11T04:06:13.109Z,100578.03
2023-07-11T04:08:39.933Z,100568.16
2023-07-11T04:11:06.359Z,100570.75
2023-07-11T04:13:32.858Z,100573.28
2023-07-11T04:15:59.257Z,100578.59
2023-07-11T04:18:25.752Z,100570.50
2023-07-11T04:20:52.079Z,100571.28
2023-07-11T04:23:18.598Z,100573.78
2023-07-11T04:25:45.072Z,100572.88
2023-07-11T04:28:12.715Z,100570.16
2023-07-11T04:30:39.171Z,100572.63
2023-07-11T04:33:05.584Z,100573.47
2023-07-11T04:35:31.952Z,100577.88
2023-07-11T04:37:58.418Z,100572.34
2023-07-11T04:40:24.935Z,100574.03
2023-07-11T04:42:51.274Z,100574.91
2023-07-11T04:45:17.654Z,100569.44
2023-07-11T04:47:46.314Z,100573.88
2023-07-11T04:50:13.709Z,100579.84
2023-07-11T04:52:40.118Z,100571.53
2023-07-11T04:55:07.068Z,100574.88
2023-07-11T04:57:33.463Z,100577.50
2023-07-11T04:59:59.902Z,100579.91
2023-07-11T05:02:26.334Z,100574.41
2023-07-11T05:04:52.802Z,100574.19
2023-07-11T05:07:19.474Z,100571.28
2023-07-11T05:09:58.895Z,100569.34
2023-07-11T05:12:26.127Z,100571.78
2023-07-11T05:14:52.477Z,100568.91
2023-07-11T05:17:19.044Z,100562.47
2023-07-11T05:19:45.529Z,100559.53
2023-07-11T05:22:11.879Z,100558.38
2023-07-11T05:24:38.309Z,100560.78
2023-07-11T05:27:04.769Z,100556.91
2023-07-11T05:29:31.731Z,100555.00
2023-07-11T05:31:58.127Z,100556.47
2023-07-11T05:34:24.527Z,100558.13
2023-07-11T05:36:50.975Z,100553.28
2023-07-11T05:39:17.582Z,100545.88
2023-07-11T05:41:47.816Z,100548.31
2023-07-11T05:44:15.338Z,100541.09
2023-07-11T05:46:45.332Z,100548.88
2023-07-11T05:49:13.742Z,100537.88
2023-07-11T05:51:40.119Z,100539.00
2023-07-11T05:54:06.547Z,100538.94
2023-07-11T05:56:32.983Z,100541.84
2023-07-11T05:59:00.203Z,100539.38
2023-07-11T06:01:30.553Z,100531.44
2023-07-11T06:04:05.463Z,100525.13
2023-07-11T06:06:34.447Z,100527.00
2023-07-11T06:09:00.844Z,100526.31
2023-07-11T06:11:27.285Z,100525.47
2023-07-11T06:13:53.654Z,100520.81
2023-07-11T06:16:20.310Z,100519.63
2023-07-11T06:18:50.008Z,100517.94
2023-07-11T06:21:16.571Z,100514.06
2023-07-11T06:23:43.117Z,100514.75
2023-07-11T06:26:10.929Z,100504.16
2023-07-11T06:28:38.882Z,100503.69
2023-07-11T06:31:08.158Z,100506.53
2023-07-11T06:33:35.915Z,100499.44
2023-07-11T06:36:04.589Z,100503.03
2023-07-11T06:38:31.037Z,100504.56
2023-07-11T06:40:57.820Z,100508.56
2023-07-11T06:43:25.788Z,100502.72
2023-07-11T06:45:57.479Z,100506.34
2023-07-11T06:48:26.452Z,100497.34
2023-07-11T06:50:56.280Z,100488.56
2023-07-11T06:53:26.098Z,100491.00
2023-07-11T06:55:53.293Z,100482.75
2023-07-11T06:58:20.586Z,100480.69
2023-07-11T07:00:56.029Z,100481.91
2023-07-11T07:03:23.423Z,100480.16
2023-07-11T07:05:51.597Z,100480.44
2023-07-11T07:08:20.512Z,100478.09
2023-07-11T07:10:48.328Z,100477.59
2023-07-11T07:13:16.006Z,100474.66
2023-07-11T07:15:43.156Z,100474.13
2023-07-11T07:18:09.594Z,100467.53
2023-07-11T07:20:48.308Z,100472.41
2023-07-11T07:23:22.686Z,100469.81
2023-07-11T07:25:55.098Z,100467.66
2023-07-11T07:28:21.748Z,100465.31
2023-07-11T07:30:53.429Z,100470.56
2023-07-11T07:33:21.164Z,100469.63
2023-07-11T07:35:47.578Z,100465.19
2023-07-11T07:38:14.020Z,100466.69
2023-07-11T07:40:40.407Z,100465.22
2023-07-11T07:43:06.984Z,100462.94
2023-07-11T07:45:33.373Z,100457.78
2023-07-11T07:47:59.746Z,100450.06
2023-07-11T07:50:26.213Z,100449.97
2023-07-11T07:52:52.608Z,100451.03
2023-07-11T07:55:18.994Z,100449.22
2023-07-11T07:57:45.763Z,100441.91
2023-07-11T08:00:12.425Z,100437.88
2023-07-11T08:02:43.478Z,100431.78
2023-07-11T08:05:09.864Z,100429.34
2023-07-11T08:07:36.355Z,100424.97
2023-07-11T08:10:02.784Z,100431.78
2023-07-11T08:12:29.246Z,100429.28
2023-07-11T08:14:55.630Z,100433.44
2023-07-11T08:17:22.097Z,100421.16
2023-07-11T08:19:48.753Z,100422.25
2023-07-11T08:22:15.381Z,100420.38
2023-07-11T08:24:41.860Z,100416.56
2023-07-11T08:27:08.184Z,100402.94
2023-07-11T08:29:34.585Z,100404.63
2023-07-11T08:32:00.997Z,100401.03
2023-07-11T08:34:27.476Z,100395.91
2023-07-11T08:36:54.065Z,100391.31
2023-07-11T08:39:20.488Z,100394.69
2023-07-11T08:41:50.259Z,100389.25
2023-07-11T08:44:40.053Z,100397.09
2023-07-11T08:47:32.274Z,100387.88
2023-07-11T08:50:12.161Z,100381.00
2023-07-11T08:52:38.910Z,100379.69
2023-07-11T08:55:26.778Z,100378.69
2023-07-11T08:58:02.786Z,100371.06
2023-07-11T09:00:30.910Z,100374.84
2023-07-11T09:03:13.628Z,100376.16
2023-07-11T09:05:46.706Z,100365.56
2023-07-11T09:08:18.677Z,100362.28
2023-07-11T09:10:58.165Z,100355.72
2023-07-11T09:13:52.085Z,100355.94
2023-07-11T09:16:30.165Z,100345.88
2023-07-11T09:18:59.791Z,100348.94
2023-07-11T09:21:38.934Z,100339.41
2023-07-11T09:24:21.763Z,100337.75
2023-07-11T09:26:50.923Z,100339.78
2023-07-11T09:29:18.931Z,100332.16
2023-07-11T09:31:52.763Z,100328.53
2023-07-11T09:34:29.235Z,100319.81
2023-07-11T09:36:58.993Z,100319.97
2023-07-11T09:39:50.229Z,100320.19
2023-07-11T09:42:51.348Z,100311.31
2023-07-11T09:45:20.248Z,100314.63
2023-07-11T09:47:55.850Z,100313.66
2023-07-11T09:50:51.558Z,100300.94
2023-07-11T09:53:30.225Z,100305.13
2023-07-11T09:56:12.285Z,100298.00
2023-07-11T09:58:40.050Z,100305.47
2023-07-11T10:01:15.840Z,100303.84
2023-07-11T10:03:48.230Z,100294.00
2023-07-11T10:06:53.333Z,100294.41
2023-07-11T10:09:30.258Z,100283.91
2023-07-11T10:11:58.063Z,100267.31
2023-07-11T10:14:34.268Z,100271.44
2023-07-11T10:17:14.935Z,100271.25
2023-07-11T10:19:41.279Z,100271.94
2023-07-11T10:22:17.435Z,100266.81
2023-07-11T10:24:43.808Z,100261.31
2023-07-11T10:27:15.525Z,100261.53
2023-07-11T10:29:46.916Z,100260.63
2023-07-11T10:32:20.867Z,100257.66
2023-07-11T10:34:58.670Z,100260.47
2023-07-11T10:37:40.620Z,100259.88
2023-07-11T10:40:29.326Z,100249.13
2023-07-11T10:43:27.581Z,100249.66
2023-07-11T10:46:05.830Z,100246.25
2023-07-11T10:48:35.487Z,100241.72
2023-07-11T10:51:08.184Z,100234.16
2023-07-11T10:53:43.708Z,100235.22
2023-07-11T10:56:25.861Z,100223.56
2023-07-11T10:58:54.668Z,100226.47
2023-07-11T11:01:35.998Z,100220.63
2023-07-11T11:04:59.489Z,100214.69
2023-07-11T11:07:57.537Z,100219.53
2023-07-11T11:10:39.886Z,100201.69
2023-07-11T11:13:27.251Z,100197.91
2023-07-11T11:16:04.452Z,100212.09
2023-07-11T11:18:52.334Z,100192.72
2023-07-11T11:24:33.965Z,100178.16
2023-07-11T11:27:27.108Z,100179.56
2023-07-11T11:30:02.772Z,100171.50
2023-07-11T11:33:09.366Z,100161.50
2023-07-11T11:35:48.913Z,100169.31
2023-07-11T11:38:28.162Z,100160.13
2023-07-11T11:41:01.413Z,100158.09
2023-07-11T11:43:34.019Z,100147.19
2023-07-11T11:51:14.139Z,100143.44
2023-07-11T11:53:48.199Z,100133.00
2023-07-11T11:56:24.031Z,100133.88
2023-07-11T11:59:00.807Z,100138.78
2023-07-11T12:01:51.830Z,100126.34
2023-07-11T12:04:30.890Z,100121.13
2023-07-11T12:07:03.351Z,100120.81
2023-07-11T12:09:54.469Z,100118.94
2023-07-11T12:12:45.281Z,100116.47
2023-07-11T12:15:11.594Z,100102.28
2023-07-11T12:17:39.584Z,100106.19
2023-07-11T12:20:08.704Z,100103.28
2023-07-11T12:22:38.074Z,100094.22
2023-07-11T12:25:07.650Z,100087.44
2023-07-11T12:27:34.172Z,100089.28
2023-07-11T12:30:22.133Z,100092.09
2023-07-11T12:32:50.584Z,100083.25
2023-07-11T12:35:22.404Z,100084.47
2023-07-11T12:37:58.129Z,100081.50
2023-07-11T12:41:01.923Z,100074.53
2023-07-11T12:43:35.418Z,100065.09
2023-07-11T12:46:08.557Z,100050.81
2023-07-11T12:48:44.721Z,100060.91
2023-07-11T12:51:23.197Z,100056.09
2023-07-11T12:53:55.511Z,100052.63
2023-07-11T12:56:22.022Z,100051.28
2023-07-11T12:58:49.157Z,100052.38
2023-07-11T13:01:16.954Z,100036.75
2023-07-11T13:03:43.909Z,100025.38
2023-07-11T13:06:22.844Z,100024.16
2023-07-11T13:08:50.384Z,100021.31
2023-07-11T13:11:37.159Z,100024.00
2023-07-11T13:14:03.817Z,100016.91
2023-07-11T13:16:40.690Z,100014.59
2023-07-11T13:19:15.372Z,100009.59
2023-07-11T13:21:44.350Z,100004.97
2023-07-11T13:24:14.352Z,100006.16
2023-07-11T13:26:41.233Z,100000.44
2023-07-11T13:29:10.361Z,99993.88
2023-07-11T13:31:38.582Z,99989.13
2023-07-11T13:34:11.780Z,99984.41
2023-07-11T13:36:40.301Z,99972.50
2023-07-11T13:39:11.756Z,99978.84
2023-07-11T13:41:42.272Z,99971.03
2023-07-11T13:44:34.479Z,99960.84
2023-07-11T13:47:03.750Z,99971.97
2023-07-11T13:49:42.845Z,99960.53
2023-07-11T13:52:40.745Z,99952.78
2023-07-11T13:55:18.704Z,99952.25
2023-07-11T13:57:45.344Z,99952.47
2023-07-11T14:00:16.286Z,99954.69
2023-07-11T14:02:45.107Z,99942.91
2023-07-11T14:05:19.536Z,99946.22
2023-07-11T14:07:45.995Z,99942.56
2023-07-11T14:10:13.568Z,99935.75
2023-07-11T14:12:41.606Z,99932.72
2023-07-11T14:15:19.529Z,99943.97
2023-07-11T14:17:46.554Z,99920.00
2023-07-11T14:20:19.004Z,99936.81
2023-07-11T14:22:46.792Z,99921.66
2023-07-11T14:25:15.132Z,99908.44
2023-07-11T14:27:42.739Z,99927.84
2023-07-11T14:30:12.261Z,99923.22
2023-07-11T14:32:39.324Z,99920.28
2023-07-11T14:35:14.267Z,99927.66
2023-07-11T14:37:40.697Z,99928.13
2023-07-11T14:40:14.397Z,99923.22
2023-07-11T14:42:40.785Z,99922.50
2023-07-11T14:45:18.462Z,99925.28
2023-07-11T14:47:47.327Z,99927.34
2023-07-11T14:50:20.248Z,99920.88
2023-07-11T14:52:47.744Z,99918.78
2023-07-11T15:00:24.258Z,99899.13
2023-07-11T15:02:51.468Z,99898.25
2023-07-11T15:10:27.416Z,99890.16
2023-07-11T15:15:27.066Z,99886.22
2023-07-11T15:17:53.865Z,99885.53
2023-07-11T15:20:23.642Z,99882.94
2023-07-11T15:22:53.474Z,99877.84
2023-07-11T15:25:29.029Z,99876.94
2023-07-11T15:27:55.724Z,99881.31
2023-07-11T15:30:22.106Z,99871.03
2023-07-11T15:32:48.583Z,99879.72
2023-07-11T15:35:22.990Z,99869.47
2023-07-11T15:37:51.291Z,99878.47
2023-07-11T15:40:26.383Z,99865.56
2023-07-11T15:42:54.363Z,99872.31
2023-07-11T15:45:25.063Z,99868.22
2023-07-11T15:47:51.970Z,99883.00
2023-07-11T15:50:22.464Z,99878.63
2023-07-11T15:52:49.007Z,99871.69
2023-07-11T15:55:22.138Z,99881.03
2023-07-11T15:57:54.563Z,99873.66
2023-07-11T16:00:24.286Z,99863.75
2023-07-11T16:02:51.759Z,99870.50
2023-07-11T16:05:22.585Z,99860.03
2023-07-11T16:07:50.074Z,99852.19
2023-07-11T16:10:22.519Z,99851.16
2023-07-11T16:12:49.110Z,99860.50
2023-07-11T16:15:15.932Z,99860.25
2023-07-11T16:17:46.823Z,99847.63
2023-07-11T16:20:20.593Z,99851.28
2023-07-11T16:22:47.278Z,99843.38
2023-07-11T16:25:16.741Z,99849.22
2023-07-11T16:27:52.721Z,99854.28
2023-07-11T16:30:22.650Z,99859.66
2023-07-11T16:32:50.543Z,99858.13
2023-07-11T16:35:20.876Z,99857.41
2023-07-11T16:37:48.713Z,99859.56
2023-07-11T16:40:19.041Z,99856.28
2023-07-11T16:42:45.464Z,99843.34
2023-07-11T16:45:16.774Z,99836.69
2023-07-11T16:47:45.754Z,99842.72
2023-07-11T16:50:25.551Z,99836.63
2023-07-11T16:52:53.221Z,99834.56
2023-07-11T16:55:19.630Z,99823.06
2023-07-11T16:57:46.077Z,99827.22
2023-07-11T17:00:24.520Z,99842.41
2023-07-11T17:02:52.386Z,99840.91
2023-07-11T17:05:21.226Z,99842.81
2023-07-11T17:07:49.666Z,99835.63
2023-07-11T17:10:17.942Z,99835.84
2023-07-11T17:12:44.863Z,99840.03
2023-07-11T17:15:14.754Z,99832.13
2023-07-11T17:17:41.307Z,99830.41
2023-07-11T17:20:21.998Z,99819.38
2023-07-11T17:22:49.672Z,99797.47
2023-07-11T17:25:21.244Z,99771.13
2023-07-11T17:27:51.590Z,99736.44
2023-07-11T17:30:20.849Z,99718.03
2023-07-11T17:32:47.918Z,99722.63
2023-07-11T17:35:18.554Z,99726.59
2023-07-11T17:37:51.635Z,99719.16
2023-07-11T17:40:26.038Z,99716.81
2023-07-11T17:42:53.290Z,99721.81
2023-07-11T17:45:46.001Z,99738.50
2023-07-11T17:48:18.387Z,99749.81
2023-07-11T17:50:47.953Z,99744.88
2023-07-11T17:53:15.273Z,99746.72
2023-07-11T17:55:42.881Z,99752.06
2023-07-11T17:58:30.008Z,99753.69
2023-07-11T18:00:59.178Z,99732.06
2023-07-11T18:03:27.311Z,99726.78
2023-07-11T18:05:54.980Z,99729.72
2023-07-11T18:08:23.112Z,99691.84
2023-07-11T18:10:53.037Z,99656.03
2023-07-11T18:13:20.144Z,99641.31
2023-07-11T18:15:48.476Z,99624.34
2023-07-11T18:18:27.082Z,99602.28
2023-07-11T18:20:56.188Z,99628.16
2023-07-11T18:23:23.034Z,99658.16
2023-07-11T18:25:52.746Z,99671.59
2023-07-11T18:28:20.990Z,99659.34
2023-07-11T18:30:48.170Z,99657.03
2023-07-11T18:33:14.907Z,99667.00
2023-07-11T18:35:41.684Z,99664.22
2023-07-11T18:38:21.840Z,99665.44
2023-07-11T18:40:49.426Z,99666.66
2023-07-11T18:43:18.228Z,99645.38
2023-07-11T18:45:47.535Z,99616.19
2023-07-11T18:48:14.628Z,99639.59
2023-07-11T18:50:43.017Z,99653.44
2023-07-11T18:53:09.471Z,99644.31
2023-07-11T18:55:35.903Z,99636.34
2023-07-11T18:58:05.049Z,99638.56
2023-07-11T19:00:38.535Z,99633.69
2023-07-11T19:03:09.822Z,99618.66
2023-07-11T19:05:38.854Z,99599.50
2023-07-11T19:08:20.241Z,99598.50
2023-07-11T19:10:47.474Z,99602.41
2023-07-11T19:13:14.206Z,99592.41
2023-07-11T19:15:42.194Z,99602.41
2023-07-11T19:18:21.978Z,99614.72
2023-07-11T19:20:49.613Z,99614.47
2023-07-11T19:23:20.827Z,99623.75
2023-07-11T19:25:49.014Z,99630.44
2023-07-11T19:28:16.798Z,99633.06
2023-07-11T19:30:49.962Z,99631.13
2023-07-11T19:33:17.868Z,99626.75
2023-07-11T19:35:59.016Z,99628.22
2023-07-11T19:38:28.578Z,99628.50
2023-07-11T19:40:55.710Z,99635.63
2023-07-11T19:43:22.742Z,99651.75
2023-07-11T19:45:54.298Z,99649.91
2023-07-11T19:48:24.490Z,99647.38
2023-07-11T19:50:56.255Z,99633.41
2023-07-11T19:53:24.823Z,99623.09
2023-07-11T19:55:54.086Z,99617.88
2023-07-11T19:58:23.539Z,99625.56
2023-07-11T20:00:55.581Z,99633.00
2023-07-11T20:03:25.150Z,99628.75
2023-07-11T20:05:51.748Z,99644.22
2023-07-11T20:08:20.245Z,99655.91
2023-07-11T20:10:52.584Z,99646.59
2023-07-11T20:13:21.310Z,99648.97
2023-07-11T20:16:01.284Z,99660.94
2023-07-11T20:18:31.388Z,99675.16
2023-07-11T20:21:04.516Z,99687.41
2023-07-11T20:23:31.073Z,99696.97
2023-07-11T20:26:05.869Z,99701.53
2023-07-11T20:28:33.223Z,99702.56
2023-07-11T20:31:01.430Z,99718.75
2023-07-11T20:33:27.849Z,99742.44
2023-07-11T20:35:57.260Z,99739.38
2023-07-11T20:38:24.824Z,99750.75
2023-07-11T20:40:51.781Z,99745.75
2023-07-11T20:43:18.919Z,99694.44
2023-07-11T20:45:48.790Z,99677.06
2023-07-11T20:48:21.300Z,99698.66
2023-07-11T20:50:48.521Z,99700.59
2023-07-11T20:53:15.452Z,99695.53
2023-07-11T20:55:47.359Z,99691.72
2023-07-11T20:58:16.324Z,99693.78
2023-07-11T21:00:43.547Z,99715.47
2023-07-11T21:03:14.264Z,99725.84
2023-07-11T21:05:41.920Z,99736.25
2023-07-11T21:08:28.880Z,99748.94
2023-07-11T21:10:56.620Z,99781.72
2023-07-11T21:13:23.839Z,99786.34
2023-07-11T21:15:51.870Z,99796.13
2023-07-11T21:18:20.617Z,99805.41
2023-07-11T21:20:49.827Z,99779.03
2023-07-11T21:23:16.645Z,99759.72
2023-07-11T21:25:44.318Z,99770.53
2023-07-11T21:28:24.799Z,99813.97
2023-07-11T21:30:51.796Z,99828.28
2023-07-11T21:33:19.477Z,99803.44
2023-07-11T21:35:47.185Z,99778.38
2023-07-11T21:38:31.769Z,99778.34
2023-07-11T21:41:00.131Z,99784.44
2023-07-11T21:43:26.833Z,99789.28
2023-07-11T21:45:56.736Z,99815.47
2023-07-11T21:48:26.611Z,99833.44
2023-07-11T21:50:58.301Z,99839.88
2023-07-11T21:53:27.093Z,99858.13
2023-07-11T21:55:59.411Z,99871.97
2023-07-11T21:58:26.483Z,99878.56
2023-07-11T22:00:53.747Z,99867.22
2023-07-11T22:03:23.548Z,99857.66
2023-07-11T22:05:55.839Z,99857.59
2023-07-11T22:08:28.917Z,99861.22
2023-07-11T22:10:56.412Z,99876.41
2023-07-11T22:13:26.924Z,99900.78
2023-07-11T22:15:53.816Z,99901.88
2023-07-11T22:18:25.090Z,99895.75
2023-07-11T22:20:51.839Z,99898.31
2023-07-11T22:23:18.901Z,99913.50
2023-07-11T22:25:46.032Z,99913.06
2023-07-11T22:28:16.670Z,99925.06
2023-07-11T22:30:45.258Z,99938.19
2023-07-11T22:33:13.813Z,99960.34
2023-07-11T22:35:40.476Z,99971.00
2023-07-11T22:38:08.034Z,99965.38
2023-07-11T22:40:42.637Z,99995.13
2023-07-11T22:43:12.083Z,100018.88
2023-07-11T22:45:39.224Z,99998.97
2023-07-11T22:48:06.613Z,99971.25
2023-07-11T22:50:38.091Z,99951.50
2023-07-11T22:53:10.775Z,99963.78
2023-07-11T22:55:39.044Z,99959.59
2023-07-11T22:58:06.733Z,99941.75
2023-07-11T23:00:36.161Z,99931.09
2023-07-11T23:03:04.207Z,99922.97
2023-07-11T23:05:31.294Z,99920.59
2023-07-11T23:07:57.688Z,99911.88
2023-07-11T23:10:39.337Z,99919.22
2023-07-11T23:13:05.922Z,99922.03
2023-07-11T23:15:32.573Z,99922.06
2023-07-11T23:17:59.317Z,99939.09
2023-07-11T23:20:40.157Z,99933.00
2023-07-11T23:23:06.609Z,99927.66
2023-07-11T23:25:33.202Z,99930.19
2023-07-11T23:28:02.609Z,99932.28
2023-07-11T23:30:38.600Z,99933.97
2023-07-11T23:33:05.057Z,99932.22
2023-07-11T23:35:33.942Z,99934.13
2023-07-11T23:38:02.470Z,99927.50
2023-07-11T23:40:37.028Z,99932.06
2023-07-11T23:43:06.928Z,99936.72
2023-07-11T23:45:36.899Z,99913.56
2023-07-11T23:48:05.200Z,99914.94
2023-07-11T23:50:36.898Z,99912.16
2023-07-11T23:53:04.669Z,99913.38
2023-07-11T23:55:32.071Z,99917.13
2023-07-11T23:57:58.429Z,99918.09
